Time;durP1;ratioP1;P1;durP2;ratioP2;P2;SDS_P1;SDS_P2;PMS_P1;PMS_P2;Temp;Humidity;BMP_temperature;BMP_pressure;BME280_temperature;BME280_humidity;BME280_pressure;Samples;Min_cycle;Max_cycle;Signal;HPM_P1;HPM_P2
2023/09/14 00:00:35;;;;;;;10.07;3.70;;;;;;;;;;5058599;28;20416;-77
2023/09/14 00:03:02;;;;;;;10.02;3.70;;;;;;;;;;5065778;28;20489;-77
2023/09/14 00:05:29;;;;;;;8.07;3.50;;;;;;;;;;5075397;28;20400;-76
2023/09/14 00:07:55;;;;;;;10.77;3.90;;;;;;;;;;5075533;28;20436;-76
2023/09/14 00:10:21;;;;;;;10.57;3.70;;;;;;;;;;5059074;28;20408;-76
2023/09/14 00:12:47;;;;;;;10.20;3.50;;;;;;;;;;5093066;28;20444;-78
2023/09/14 00:15:13;;;;;;;9.07;3.40;;;;;;;;;;5058478;28;20433;-77
2023/09/14 00:17:40;;;;;;;11.23;3.67;;;;;;;;;;5057839;28;20425;-77
2023/09/14 00:20:06;;;;;;;14.20;3.90;;;;;;;;;;5093391;28;20420;-77
2023/09/14 00:22:33;;;;;;;10.40;3.78;;;;;;;;;;5075278;28;20492;-77
2023/09/14 00:24:59;;;;;;;10.80;3.70;;;;;;;;;;5075621;28;20420;-77
2023/09/14 00:27:25;;;;;;;10.82;3.90;;;;;;;;;;5059110;28;20479;-77
2023/09/14 00:29:51;;;;;;;10.38;3.60;;;;;;;;;;5058475;28;20481;-77
2023/09/14 00:32:17;;;;;;;12.93;3.80;;;;;;;;;;5059344;28;20409;-77
2023/09/14 00:34:43;;;;;;;11.97;3.80;;;;;;;;;;5058845;28;20434;-77
2023/09/14 00:37:09;;;;;;;11.27;3.78;;;;;;;;;;5074570;28;20453;-77
2023/09/14 00:39:35;;;;;;;7.90;3.60;;;;;;;;;;5075415;28;20460;-76
2023/09/14 00:42:01;;;;;;;9.98;3.50;;;;;;;;;;5092848;28;20417;-76
2023/09/14 00:44:27;;;;;;;11.10;3.85;;;;;;;;;;5067419;28;20412;-76
2023/09/14 00:46:53;;;;;;;11.05;3.50;;;;;;;;;;5062439;28;20448;-76
2023/09/14 00:49:19;;;;;;;12.00;3.72;;;;;;;;;;5092619;28;20432;-77
2023/09/14 00:51:46;;;;;;;11.45;4.00;;;;;;;;;;5057896;28;20424;-76
2023/09/14 00:54:13;;;;;;;8.80;3.60;;;;;;;;;;5071167;28;20425;-76
2023/09/14 00:56:39;;;;;;;10.70;3.75;;;;;;;;;;5038522;28;20410;-76
2023/09/14 00:59:05;;;;;;;10.35;3.80;;;;;;;;;;5058944;28;20428;-76
2023/09/14 01:01:32;;;;;;;10.00;4.07;;;;;;;;;;5074163;28;20400;-76
2023/09/14 01:03:58;;;;;;;8.68;3.40;;;;;;;;;;5075267;28;20411;-76
2023/09/14 01:06:24;;;;;;;12.02;3.67;;;;;;;;;;5092788;28;20432;-76
2023/09/14 01:08:53;;;;;;;14.05;3.90;;;;;;;;;;5083965;28;20403;-76
2023/09/14 01:11:19;;;;;;;10.18;3.60;;;;;;;;;;5068102;28;20433;-77
2023/09/14 01:13:45;;;;;;;12.93;3.80;;;;;;;;;;5057871;28;21004;-77
2023/09/14 01:16:20;;;;;;;12.73;3.87;;;;;;;;;;5093221;28;20183;-77
2023/09/14 01:18:49;;;;;;;11.47;3.30;;;;;;;;;;5085972;28;20206;-77
2023/09/14 01:21:25;;;;;;;11.20;3.40;;;;;;;;;;5078611;28;20413;-77
2023/09/14 01:23:51;;;;;;;9.53;3.50;;;;;;;;;;5056746;28;20171;-77
2023/09/14 01:26:17;;;;;;;12.20;3.03;;;;;;;;;;5063388;28;20186;-77
2023/09/14 01:28:43;;;;;;;12.57;3.40;;;;;;;;;;5074870;28;20249;-76
2023/09/14 01:31:09;;;;;;;13.13;3.80;;;;;;;;;;5093763;28;20183;-77
2023/09/14 01:33:36;;;;;;;11.03;3.30;;;;;;;;;;5070863;28;20191;-76
2023/09/14 01:36:08;;;;;;;9.93;3.27;;;;;;;;;;5071300;28;20214;-77
2023/09/14 01:38:34;;;;;;;10.70;3.30;;;;;;;;;;5071832;28;20203;-76
2023/09/14 01:41:01;;;;;;;10.50;3.57;;;;;;;;;;5066254;28;20198;-76
2023/09/14 01:43:27;;;;;;;12.93;3.60;;;;;;;;;;5051379;28;20282;-75
2023/09/14 01:45:54;;;;;;;10.10;3.37;;;;;;;;;;5054376;28;20250;-75
2023/09/14 01:48:20;;;;;;;8.32;3.33;;;;;;;;;;5095189;28;20400;-75
2023/09/14 01:50:46;;;;;;;11.87;3.23;;;;;;;;;;5078817;28;20269;-75
2023/09/14 01:53:12;;;;;;;9.30;3.20;;;;;;;;;;5096617;28;20280;-75
2023/09/14 01:55:38;;;;;;;12.85;3.80;;;;;;;;;;5077659;28;20444;-77
2023/09/14 01:58:05;;;;;;;9.87;3.47;;;;;;;;;;5078906;28;20198;-77
2023/09/14 02:00:32;;;;;;;11.18;3.45;;;;;;;;;;5078200;28;20500;-76
2023/09/14 02:02:58;;;;;;;13.35;4.20;;;;;;;;;;5077847;28;20420;-76
2023/09/14 02:05:24;;;;;;;11.32;3.55;;;;;;;;;;5078337;28;20401;-76
2023/09/14 02:07:50;;;;;;;9.50;3.72;;;;;;;;;;5095657;28;20449;-76
2023/09/14 02:10:16;;;;;;;11.57;3.85;;;;;;;;;;5077927;28;20431;-76
2023/09/14 02:12:42;;;;;;;11.20;3.75;;;;;;;;;;5077911;28;20437;-76
2023/09/14 02:15:09;;;;;;;12.95;4.10;;;;;;;;;;5061157;28;20420;-76
2023/09/14 02:17:35;;;;;;;10.40;3.75;;;;;;;;;;5077368;28;20424;-77
2023/09/14 02:20:01;;;;;;;10.57;3.63;;;;;;;;;;5095232;28;20435;-77
2023/09/14 02:22:27;;;;;;;11.57;3.90;;;;;;;;;;5077303;28;20468;-76
2023/09/14 02:24:53;;;;;;;11.02;4.10;;;;;;;;;;5077465;28;20417;-77
2023/09/14 02:27:19;;;;;;;9.90;3.85;;;;;;;;;;5060803;28;20459;-77
2023/09/14 02:29:45;;;;;;;12.00;3.90;;;;;;;;;;5075542;28;20423;-77
2023/09/14 02:32:11;;;;;;;6.73;3.27;;;;;;;;;;5064516;28;20179;-77
2023/09/14 02:34:37;;;;;;;9.82;3.80;;;;;;;;;;5075347;28;20415;-77
2023/09/14 02:37:03;;;;;;;12.23;3.88;;;;;;;;;;5077529;28;20426;-77
2023/09/14 02:39:29;;;;;;;8.57;3.70;;;;;;;;;;5057390;28;20449;-77
2023/09/14 02:41:55;;;;;;;10.67;3.87;;;;;;;;;;5030929;22;20542;-76
2023/09/14 02:44:21;;;;;;;11.17;3.83;;;;;;;;;;5028546;28;20435;-76
2023/09/14 02:46:47;;;;;;;10.75;3.92;;;;;;;;;;5023821;28;20503;-77
2023/09/14 02:49:13;;;;;;;9.10;3.40;;;;;;;;;;5029064;28;20258;-77
2023/09/14 02:51:39;;;;;;;10.13;3.43;;;;;;;;;;5031494;28;20195;-77
2023/09/14 02:54:05;;;;;;;9.05;3.30;;;;;;;;;;5010094;28;20378;-77
2023/09/14 02:56:31;;;;;;;10.60;3.77;;;;;;;;;;5031648;28;20179;-77
2023/09/14 02:58:57;;;;;;;11.38;3.92;;;;;;;;;;5030120;28;20443;-77
2023/09/14 03:01:23;;;;;;;10.60;4.10;;;;;;;;;;5025593;28;20468;-77
2023/09/14 03:03:49;;;;;;;9.80;4.07;;;;;;;;;;5036211;28;20506;-77
2023/09/14 03:06:15;;;;;;;9.88;3.80;;;;;;;;;;5020318;28;20497;-77
2023/09/14 03:08:41;;;;;;;9.60;4.07;;;;;;;;;;5016317;28;20481;-74
2023/09/14 03:11:07;;;;;;;11.37;4.30;;;;;;;;;;5020214;28;20427;-74
2023/09/14 03:13:33;;;;;;;9.13;3.97;;;;;;;;;;5035895;28;20424;-77
2023/09/14 03:16:00;;;;;;;10.10;4.10;;;;;;;;;;5061463;28;20441;-77
2023/09/14 03:18:26;;;;;;;10.93;3.87;;;;;;;;;;5057725;28;20250;-77
2023/09/14 03:20:53;;;;;;;10.63;3.80;;;;;;;;;;5037833;28;20180;-74
2023/09/14 03:23:19;;;;;;;9.37;3.90;;;;;;;;;;5037059;28;20187;-76
2023/09/14 03:25:45;;;;;;;11.47;3.33;;;;;;;;;;5054881;28;20184;-76
2023/09/14 03:28:11;;;;;;;11.30;3.97;;;;;;;;;;5036695;28;20176;-76
2023/09/14 03:30:38;;;;;;;8.43;3.37;;;;;;;;;;5053289;28;20191;-76
2023/09/14 03:33:04;;;;;;;12.90;3.40;;;;;;;;;;5053841;28;20208;-76
2023/09/14 03:35:30;;;;;;;10.47;3.70;;;;;;;;;;5017572;28;20192;-76
2023/09/14 03:37:56;;;;;;;13.53;3.47;;;;;;;;;;5048604;28;20199;-76
2023/09/14 03:40:22;;;;;;;11.50;3.30;;;;;;;;;;5036551;28;20250;-77
2023/09/14 03:42:49;;;;;;;10.13;3.40;;;;;;;;;;5033449;28;20242;-77
2023/09/14 03:45:15;;;;;;;9.70;3.67;;;;;;;;;;5033725;28;20204;-77
2023/09/14 03:47:41;;;;;;;10.05;3.70;;;;;;;;;;5033541;28;20427;-77
2023/09/14 03:50:09;;;;;;;12.97;3.90;;;;;;;;;;5036797;28;20207;-77
2023/09/14 03:52:35;;;;;;;11.90;3.80;;;;;;;;;;5053509;28;20499;-77
2023/09/14 03:55:02;;;;;;;10.40;3.90;;;;;;;;;;5020514;28;20279;-77
2023/09/14 03:57:29;;;;;;;9.13;3.40;;;;;;;;;;5036283;28;20241;-74
2023/09/14 03:59:55;;;;;;;9.40;3.30;;;;;;;;;;5059670;28;20214;-74
2023/09/14 04:02:21;;;;;;;8.60;3.30;;;;;;;;;;5063969;28;20188;-74
2023/09/14 04:04:48;;;;;;;11.10;3.57;;;;;;;;;;5036442;28;20226;-75
2023/09/14 04:07:14;;;;;;;9.95;4.10;;;;;;;;;;5035411;28;20442;-74
2023/09/14 04:09:41;;;;;;;8.77;3.50;;;;;;;;;;5019769;28;20208;-74
2023/09/14 04:12:08;;;;;;;6.73;3.10;;;;;;;;;;5035042;28;20188;-75
2023/09/14 04:14:34;;;;;;;7.50;3.50;;;;;;;;;;5054162;28;20916;-77
2023/09/14 04:17:01;;;;;;;7.87;3.13;;;;;;;;;;5016888;28;20184;-77
2023/09/14 04:19:27;;;;;;;11.32;3.70;;;;;;;;;;5046515;28;20431;-77
2023/09/14 04:21:54;;;;;;;10.87;3.40;;;;;;;;;;5020227;28;20190;-77
2023/09/14 04:24:20;;;;;;;7.77;3.60;;;;;;;;;;5019597;28;20206;-77
2023/09/14 04:26:47;;;;;;;9.03;3.33;;;;;;;;;;5024421;28;20196;-77
2023/09/14 04:29:13;;;;;;;7.00;3.30;;;;;;;;;;5037801;28;20433;-76
2023/09/14 04:31:40;;;;;;;7.68;3.55;;;;;;;;;;5038411;28;20424;-75
2023/09/14 04:34:07;;;;;;;10.02;3.53;;;;;;;;;;5031612;28;20419;-75
2023/09/14 04:36:33;;;;;;;8.27;3.72;;;;;;;;;;5035668;28;20402;-75
2023/09/14 04:39:03;;;;;;;9.27;3.17;;;;;;;;;;5052575;28;20341;-76
2023/09/14 04:41:30;;;;;;;9.90;3.60;;;;;;;;;;5032047;28;20432;-77
2023/09/14 04:43:56;;;;;;;7.57;3.20;;;;;;;;;;5016236;28;20181;-76
2023/09/14 04:46:22;;;;;;;8.27;3.30;;;;;;;;;;5023796;28;20438;-77
2023/09/14 04:48:49;;;;;;;7.83;3.83;;;;;;;;;;5028789;28;20447;-76
2023/09/14 04:51:15;;;;;;;8.67;4.03;;;;;;;;;;5047757;28;20420;-75
2023/09/14 04:53:41;;;;;;;10.07;3.80;;;;;;;;;;5019358;28;20412;-75
2023/09/14 04:56:07;;;;;;;10.70;3.88;;;;;;;;;;5035213;28;20466;-75
2023/09/14 04:58:33;;;;;;;7.97;3.70;;;;;;;;;;5034794;28;20482;-75
2023/09/14 05:01:00;;;;;;;9.50;3.50;;;;;;;;;;5053521;28;20402;-76
2023/09/14 05:03:26;;;;;;;8.33;3.40;;;;;;;;;;5036347;28;20176;-75
2023/09/14 05:05:53;;;;;;;9.80;4.05;;;;;;;;;;5018967;28;20419;-74
2023/09/14 05:08:19;;;;;;;9.40;4.20;;;;;;;;;;5035047;28;20450;-74
2023/09/14 05:10:45;;;;;;;7.53;3.97;;;;;;;;;;4997844;28;20418;-74
2023/09/14 05:13:11;;;;;;;10.10;4.20;;;;;;;;;;5015687;28;20420;-73
2023/09/14 05:15:37;;;;;;;9.05;4.25;;;;;;;;;;5015534;28;20409;-74
2023/09/14 05:18:03;;;;;;;7.97;3.57;;;;;;;;;;5015530;28;20500;-74
2023/09/14 05:20:29;;;;;;;10.43;3.92;;;;;;;;;;5031277;28;20418;-74
2023/09/14 05:22:55;;;;;;;8.00;3.88;;;;;;;;;;5000701;28;20414;-75
2023/09/14 05:25:25;;;;;;;8.57;4.28;;;;;;;;;;5003061;28;20410;-75
2023/09/14 05:27:51;;;;;;;6.72;3.90;;;;;;;;;;5003111;28;20409;-75
2023/09/14 05:30:23;;;;;;;7.07;3.80;;;;;;;;;;5019055;28;20477;-74
2023/09/14 05:32:49;;;;;;;8.23;3.70;;;;;;;;;;5003740;28;20271;-75
2023/09/14 05:35:15;;;;;;;7.38;4.20;;;;;;;;;;5019355;28;20462;-75
2023/09/14 05:37:41;;;;;;;8.63;4.32;;;;;;;;;;5002812;28;20420;-73
2023/09/14 05:40:11;;;;;;;10.98;4.20;;;;;;;;;;5029322;28;20443;-74
2023/09/14 05:42:37;;;;;;;8.27;3.88;;;;;;;;;;5038896;28;20451;-74
2023/09/14 05:45:04;;;;;;;6.53;3.88;;;;;;;;;;5021671;28;20435;-73
2023/09/14 05:47:30;;;;;;;10.93;4.35;;;;;;;;;;5021915;28;20443;-74
2023/09/14 05:49:56;;;;;;;9.73;4.22;;;;;;;;;;5038727;28;20411;-74
2023/09/14 05:52:25;;;;;;;8.15;4.30;;;;;;;;;;5021690;28;20412;-74
2023/09/14 05:54:51;;;;;;;9.35;4.45;;;;;;;;;;5021891;28;20424;-76
2023/09/14 05:57:17;;;;;;;10.68;4.40;;;;;;;;;;5028057;28;20422;-76
2023/09/14 05:59:43;;;;;;;7.75;4.20;;;;;;;;;;5038138;28;20514;-76
2023/09/14 06:02:09;;;;;;;7.10;4.50;;;;;;;;;;5057437;28;20496;-76
2023/09/14 06:04:35;;;;;;;10.75;4.78;;;;;;;;;;5056051;28;20404;-76
2023/09/14 06:07:01;;;;;;;11.30;4.90;;;;;;;;;;5026213;28;20393;-76
2023/09/14 06:09:29;;;;;;;9.33;4.43;;;;;;;;;;5006568;28;20188;-76
2023/09/14 06:11:55;;;;;;;10.98;4.45;;;;;;;;;;5055625;28;20427;-76
2023/09/14 06:14:21;;;;;;;9.05;4.55;;;;;;;;;;5052251;28;20454;-76
2023/09/14 06:16:47;;;;;;;9.82;4.50;;;;;;;;;;5019793;28;20424;-75
2023/09/14 06:19:13;;;;;;;11.32;4.53;;;;;;;;;;5055236;28;20423;-75
2023/09/14 06:21:40;;;;;;;9.88;4.45;;;;;;;;;;5029235;28;20404;-75
2023/09/14 06:24:06;;;;;;;12.47;4.60;;;;;;;;;;5022399;28;20267;-76
2023/09/14 06:26:32;;;;;;;8.23;4.70;;;;;;;;;;5014659;28;20404;-76
2023/09/14 06:28:58;;;;;;;9.13;4.30;;;;;;;;;;5023157;28;20500;-76
2023/09/14 06:31:24;;;;;;;8.97;4.80;;;;;;;;;;5054429;28;20574;-76
2023/09/14 06:33:50;;;;;;;12.02;4.93;;;;;;;;;;5020161;28;20412;-76
2023/09/14 06:36:18;;;;;;;10.57;4.90;;;;;;;;;;5041629;28;20402;-76
2023/09/14 06:38:45;;;;;;;12.30;5.40;;;;;;;;;;5037323;28;20450;-76
2023/09/14 06:41:12;;;;;;;11.00;5.22;;;;;;;;;;5037830;28;20435;-76
2023/09/14 06:43:39;;;;;;;12.80;5.15;;;;;;;;;;5028801;28;20449;-78
2023/09/14 06:46:05;;;;;;;13.40;5.15;;;;;;;;;;5016992;28;20456;-76
2023/09/14 06:48:31;;;;;;;11.43;5.00;;;;;;;;;;5016993;28;20417;-76
2023/09/14 06:50:58;;;;;;;11.10;5.05;;;;;;;;;;5017775;28;20444;-76
2023/09/14 06:53:24;;;;;;;11.07;4.95;;;;;;;;;;5013688;28;20423;-76
2023/09/14 06:55:50;;;;;;;11.45;5.22;;;;;;;;;;5029781;28;20439;-75
2023/09/14 06:58:16;;;;;;;13.18;5.57;;;;;;;;;;5011462;28;20417;-76
2023/09/14 07:00:42;;;;;;;13.77;5.07;;;;;;;;;;5034583;28;20227;-76
2023/09/14 07:03:08;;;;;;;11.18;4.80;;;;;;;;;;5017587;28;20413;-76
2023/09/14 07:05:35;;;;;;;9.48;5.10;;;;;;;;;;5033411;28;20398;-75
2023/09/14 07:08:01;;;;;;;12.50;5.22;;;;;;;;;;5033329;28;20414;-76
2023/09/14 07:10:27;;;;;;;11.32;5.15;;;;;;;;;;5034760;28;20409;-75
2023/09/14 07:12:53;;;;;;;12.43;5.15;;;;;;;;;;5017836;28;20428;-76
2023/09/14 07:15:19;;;;;;;11.23;5.20;;;;;;;;;;5017249;28;20421;-77
2023/09/14 07:17:46;;;;;;;11.47;5.57;;;;;;;;;;5000544;28;20424;-76
2023/09/14 07:20:12;;;;;;;13.18;5.60;;;;;;;;;;4999280;28;20434;-78
2023/09/14 07:22:38;;;;;;;10.93;5.00;;;;;;;;;;5017719;28;20410;-78
2023/09/14 07:25:08;;;;;;;13.10;6.13;;;;;;;;;;5036612;28;20408;-78
2023/09/14 07:27:34;;;;;;;14.40;5.27;;;;;;;;;;5035700;28;20173;-78
2023/09/14 07:30:01;;;;;;;14.13;6.10;;;;;;;;;;5001937;28;20518;-78
2023/09/14 07:32:27;;;;;;;12.60;5.78;;;;;;;;;;5017106;28;20409;-78
2023/09/14 07:34:57;;;;;;;18.02;6.70;;;;;;;;;;5032919;28;20434;-79
2023/09/14 07:37:23;;;;;;;12.93;6.40;;;;;;;;;;5016754;28;20418;-79
2023/09/14 07:39:49;;;;;;;12.70;6.27;;;;;;;;;;5021941;28;20437;-79
2023/09/14 07:42:15;;;;;;;12.73;6.30;;;;;;;;;;5029900;28;20444;-79
2023/09/14 07:44:41;;;;;;;14.00;6.20;;;;;;;;;;5035719;28;20411;-79
2023/09/14 07:47:07;;;;;;;11.52;5.80;;;;;;;;;;5019537;28;20404;-79
2023/09/14 07:49:33;;;;;;;10.63;5.37;;;;;;;;;;5017503;28;20192;-79
2023/09/14 07:51:59;;;;;;;12.18;5.93;;;;;;;;;;5000830;28;20494;-76
2023/09/14 07:54:25;;;;;;;12.32;5.80;;;;;;;;;;5016587;28;20503;-76
2023/09/14 07:56:51;;;;;;;11.23;5.60;;;;;;;;;;5000043;28;20495;-76
2023/09/14 07:59:17;;;;;;;10.02;5.45;;;;;;;;;;4999955;28;20438;-76
2023/09/14 08:01:43;;;;;;;15.27;5.53;;;;;;;;;;5015804;28;20410;-76
2023/09/14 08:04:09;;;;;;;12.57;5.40;;;;;;;;;;5016724;28;20413;-76
2023/09/14 08:06:35;;;;;;;11.30;5.35;;;;;;;;;;5023897;28;20417;-80
2023/09/14 08:09:02;;;;;;;11.50;5.50;;;;;;;;;;5035748;28;20412;-76
2023/09/14 08:11:28;;;;;;;10.20;5.30;;;;;;;;;;5020140;28;20411;-76
2023/09/14 08:13:54;;;;;;;12.13;5.20;;;;;;;;;;5051814;28;20183;-76
2023/09/14 08:16:20;;;;;;;14.00;5.70;;;;;;;;;;5035774;28;20418;-76
2023/09/14 08:18:47;;;;;;;10.65;5.55;;;;;;;;;;5019113;28;20446;-76
2023/09/14 08:21:13;;;;;;;12.40;5.35;;;;;;;;;;5026045;28;20418;-77
2023/09/14 08:23:39;;;;;;;11.37;5.17;;;;;;;;;;5036250;28;20172;-78
2023/09/14 08:26:06;;;;;;;10.07;5.13;;;;;;;;;;5019913;28;20236;-78
2023/09/14 08:28:32;;;;;;;9.23;5.00;;;;;;;;;;5036346;28;20184;-78
2023/09/14 08:30:58;;;;;;;11.23;5.57;;;;;;;;;;5035815;28;20183;-78
2023/09/14 08:33:24;;;;;;;11.27;5.03;;;;;;;;;;5019356;28;20188;-78
2023/09/14 08:35:50;;;;;;;10.13;4.80;;;;;;;;;;5047122;28;20183;-78
2023/09/14 08:38:17;;;;;;;10.60;4.67;;;;;;;;;;5019458;28;20211;-80
2023/09/14 08:40:45;;;;;;;9.77;4.43;;;;;;;;;;5051778;28;20176;-77
2023/09/14 08:43:12;;;;;;;11.67;4.60;;;;;;;;;;5006711;28;20185;-77
2023/09/14 08:45:39;;;;;;;13.47;4.63;;;;;;;;;;5002634;28;20192;-76
2023/09/14 08:48:05;;;;;;;11.10;4.37;;;;;;;;;;4989361;28;20181;-79
2023/09/14 08:50:35;;;;;;;14.40;4.17;;;;;;;;;;4996472;28;20181;-79
2023/09/14 08:53:01;;;;;;;9.27;3.83;;;;;;;;;;5013739;28;20184;-80
2023/09/14 08:55:34;;;;;;;10.77;4.17;;;;;;;;;;4990940;28;20340;-79
2023/09/14 08:58:01;;;;;;;10.43;4.17;;;;;;;;;;5009402;28;20252;-77
2023/09/14 09:00:28;;;;;;;10.63;4.77;;;;;;;;;;4995521;28;20220;-77
2023/09/14 09:02:55;;;;;;;15.33;4.70;;;;;;;;;;5025002;28;20204;-77
2023/09/14 09:05:21;;;;;;;8.13;4.73;;;;;;;;;;4993507;28;20186;-77
2023/09/14 09:07:48;;;;;;;11.17;5.20;;;;;;;;;;4995865;28;20251;-77
2023/09/14 09:10:21;;;;;;;9.23;5.07;;;;;;;;;;5024899;28;20236;-77
2023/09/14 09:12:49;;;;;;;12.30;4.83;;;;;;;;;;5030957;28;20198;-77
2023/09/14 09:15:15;;;;;;;12.13;6.10;;;;;;;;;;5019163;28;20177;-79
2023/09/14 09:17:42;;;;;;;14.13;5.90;;;;;;;;;;4996020;28;20193;-79
2023/09/14 09:20:24;;;;;;;13.37;5.80;;;;;;;;;;5010469;28;20212;-79
2023/09/14 09:22:51;;;;;;;13.87;6.37;;;;;;;;;;5037230;28;20195;-78
2023/09/14 09:25:17;;;;;;;14.90;7.47;;;;;;;;;;5000518;28;20182;-78
2023/09/14 09:27:44;;;;;;;13.87;8.43;;;;;;;;;;5012397;28;20189;-77
2023/09/14 09:30:10;;;;;;;12.13;6.90;;;;;;;;;;5036231;28;20418;-77
2023/09/14 09:32:38;;;;;;;15.15;7.85;;;;;;;;;;5036669;28;20412;-77
2023/09/14 09:35:17;;;;;;;15.65;7.38;;;;;;;;;;5019026;28;20488;-77
2023/09/14 09:37:43;;;;;;;14.50;7.03;;;;;;;;;;5035946;28;20441;-77
2023/09/14 09:40:16;;;;;;;13.02;8.30;;;;;;;;;;5018692;28;20461;-78
2023/09/14 09:42:42;;;;;;;12.77;7.43;;;;;;;;;;5019523;28;20260;-78
2023/09/14 09:45:09;;;;;;;13.48;7.15;;;;;;;;;;5028135;28;20414;-77
2023/09/14 09:47:36;;;;;;;11.63;6.90;;;;;;;;;;5014219;28;20438;-76
2023/09/14 09:50:05;;;;;;;13.18;7.50;;;;;;;;;;5017824;28;20496;-77
2023/09/14 09:52:34;;;;;;;12.27;7.10;;;;;;;;;;5008466;28;20452;-77
2023/09/14 09:55:00;;;;;;;12.05;5.97;;;;;;;;;;5015104;28;20239;-77
2023/09/14 09:57:32;;;;;;;11.80;6.10;;;;;;;;;;5036442;28;20253;-77
2023/09/14 09:59:58;;;;;;;13.93;6.30;;;;;;;;;;5030608;28;20209;-78
2023/09/14 10:02:31;;;;;;;10.15;5.70;;;;;;;;;;4999996;28;20193;-77
2023/09/14 10:04:58;;;;;;;9.50;5.18;;;;;;;;;;5021810;28;20197;-80
2023/09/14 10:07:24;;;;;;;11.60;5.78;;;;;;;;;;5002139;28;20426;-80
2023/09/14 10:09:54;;;;;;;11.07;5.80;;;;;;;;;;5001153;28;20475;-80
2023/09/14 10:12:27;;;;;;;11.85;6.55;;;;;;;;;;5027205;28;20417;-80
2023/09/14 10:14:54;;;;;;;13.43;6.10;;;;;;;;;;5009998;28;20417;-81
2023/09/14 10:17:25;;;;;;;12.25;6.70;;;;;;;;;;5025992;28;20449;-80
2023/09/14 10:19:51;;;;;;;12.37;6.50;;;;;;;;;;5016644;28;20433;-79
2023/09/14 10:22:21;;;;;;;9.88;5.38;;;;;;;;;;5015738;28;20421;-79
2023/09/14 10:24:47;;;;;;;8.68;5.45;;;;;;;;;;5019144;28;20402;-78
2023/09/14 10:27:15;;;;;;;11.25;5.78;;;;;;;;;;5037401;28;20425;-78
2023/09/14 10:29:42;;;;;;;12.80;6.53;;;;;;;;;;5015761;28;20211;-79
2023/09/14 10:32:10;;;;;;;6.50;3.20;;;;;;;;;;5035830;28;20185;-77
2023/09/14 10:34:37;;;;;;;10.40;5.38;;;;;;;;;;5018180;28;20243;-77
2023/09/14 10:37:03;;;;;;;9.90;5.83;;;;;;;;;;5034789;28;20432;-77
2023/09/14 10:39:29;;;;;;;10.63;5.60;;;;;;;;;;5017929;28;20463;-76
2023/09/14 10:41:55;;;;;;;9.80;5.27;;;;;;;;;;5028118;28;20439;-77
2023/09/14 10:44:22;;;;;;;9.05;5.93;;;;;;;;;;5019667;28;20487;-77
2023/09/14 10:46:52;;;;;;;7.90;5.15;;;;;;;;;;5019401;28;20408;-77
2023/09/14 10:49:18;;;;;;;9.30;4.80;;;;;;;;;;5018004;28;20432;-77
2023/09/14 10:51:45;;;;;;;8.20;4.70;;;;;;;;;;5029394;28;20193;-77
2023/09/14 10:54:11;;;;;;;9.85;4.70;;;;;;;;;;5032414;28;20412;-76
2023/09/14 10:56:37;;;;;;;9.02;4.50;;;;;;;;;;5036120;28;20420;-79
2023/09/14 10:59:09;;;;;;;9.20;4.40;;;;;;;;;;5034808;28;20440;-80
2023/09/14 11:01:46;;;;;;;7.25;3.75;;;;;;;;;;5050474;28;20412;-81
2023/09/14 11:04:13;;;;;;;7.50;4.65;;;;;;;;;;5032556;28;20417;-80
2023/09/14 11:06:49;;;;;;;7.05;4.35;;;;;;;;;;5051808;28;20485;-82
2023/09/14 11:09:15;;;;;;;6.32;4.18;;;;;;;;;;5052613;28;20191;-81
2023/09/14 11:11:43;;;;;;;7.13;3.75;;;;;;;;;;5031691;28;20211;-76
2023/09/14 11:14:13;;;;;;;10.80;4.55;;;;;;;;;;5033116;28;20458;-76
2023/09/14 11:16:46;;;;;;;9.07;4.13;;;;;;;;;;5048403;28;20486;-76
2023/09/14 11:19:32;;;;;;;5.97;3.85;;;;;;;;;;5048588;28;20436;-76
2023/09/14 11:22:11;;;;;;;9.13;4.70;;;;;;;;;;5031456;28;20176;-76
2023/09/14 11:24:37;;;;;;;8.85;4.18;;;;;;;;;;5032924;28;20279;-77
2023/09/14 11:27:03;;;;;;;7.68;3.42;;;;;;;;;;5032218;28;20180;-77
2023/09/14 11:29:33;;;;;;;5.07;3.28;;;;;;;;;;5031467;28;20187;-79
2023/09/14 11:32:04;;;;;;;6.22;3.35;;;;;;;;;;5031957;28;20184;-79
2023/09/14 11:34:31;;;;;;;6.50;3.38;;;;;;;;;;5049597;28;20191;-80
2023/09/14 11:37:01;;;;;;;6.47;3.25;;;;;;;;;;5034738;28;20183;-80
2023/09/14 11:39:28;;;;;;;8.25;4.00;;;;;;;;;;5032704;28;20215;-80
2023/09/14 11:41:55;;;;;;;6.32;3.60;;;;;;;;;;5000992;28;1113024;-80
2023/09/14 11:44:23;;;;;;;6.82;3.80;;;;;;;;;;4997698;28;20185;-76
2023/09/14 11:46:49;;;;;;;9.00;4.00;;;;;;;;;;5022047;28;20490;-76
2023/09/14 11:49:20;;;;;;;6.93;4.07;;;;;;;;;;5031935;28;20465;-76
2023/09/14 11:51:47;;;;;;;6.20;3.95;;;;;;;;;;5016844;28;20496;-77
2023/09/14 11:54:13;;;;;;;6.93;3.88;;;;;;;;;;5033571;28;20409;-76
2023/09/14 11:56:39;;;;;;;7.53;4.07;;;;;;;;;;5014879;28;20428;-76
2023/09/14 11:59:05;;;;;;;8.07;3.90;;;;;;;;;;5031047;28;20425;-77
2023/09/14 12:01:34;;;;;;;7.60;3.75;;;;;;;;;;5014082;28;20496;-76
2023/09/14 12:04:00;;;;;;;6.57;4.10;;;;;;;;;;5031840;28;20397;-77
2023/09/14 12:06:27;;;;;;;6.63;3.87;;;;;;;;;;5014881;28;20414;-77
2023/09/14 12:08:53;;;;;;;8.52;4.68;;;;;;;;;;5008284;28;20425;-76
2023/09/14 12:11:21;;;;;;;7.10;4.63;;;;;;;;;;5032140;28;20512;-76
2023/09/14 12:13:57;;;;;;;6.57;4.23;;;;;;;;;;5002322;28;20407;-76
2023/09/14 12:16:24;;;;;;;7.07;4.40;;;;;;;;;;5013272;28;20426;-78
2023/09/14 12:18:50;;;;;;;6.97;4.53;;;;;;;;;;5003580;28;20460;-79
2023/09/14 12:21:17;;;;;;;10.13;4.50;;;;;;;;;;5015289;28;20440;-79
2023/09/14 12:23:46;;;;;;;7.28;4.30;;;;;;;;;;5015259;28;20477;-76
2023/09/14 12:26:13;;;;;;;6.90;4.05;;;;;;;;;;5032965;28;20452;-77
2023/09/14 12:28:40;;;;;;;5.60;3.55;;;;;;;;;;5014476;28;20433;-77
2023/09/14 12:31:07;;;;;;;7.75;3.30;;;;;;;;;;5015382;28;20417;-77
2023/09/14 12:33:33;;;;;;;6.00;3.35;;;;;;;;;;5021820;28;20420;-77
2023/09/14 12:35:59;;;;;;;4.85;3.15;;;;;;;;;;5019568;28;20420;-77
2023/09/14 12:38:25;;;;;;;5.60;3.28;;;;;;;;;;5025612;28;20425;-77
2023/09/14 12:40:51;;;;;;;4.88;3.28;;;;;;;;;;5015306;28;20410;-77
2023/09/14 12:43:18;;;;;;;6.80;3.53;;;;;;;;;;5022809;28;20427;-77
2023/09/14 12:45:44;;;;;;;6.47;3.50;;;;;;;;;;5018831;28;20424;-77
2023/09/14 12:48:10;;;;;;;5.63;3.47;;;;;;;;;;5018659;28;20412;-77
2023/09/14 12:50:36;;;;;;;5.73;3.90;;;;;;;;;;5018697;28;20455;-79
2023/09/14 12:53:07;;;;;;;8.63;3.33;;;;;;;;;;5035897;28;20449;-80
2023/09/14 12:55:38;;;;;;;6.37;4.10;;;;;;;;;;5034056;28;20428;-80
2023/09/14 12:58:04;;;;;;;6.93;3.77;;;;;;;;;;5052474;28;20411;-79
2023/09/14 13:00:33;;;;;;;7.68;4.28;;;;;;;;;;5052669;28;20424;-79
2023/09/14 13:02:59;;;;;;;7.40;4.10;;;;;;;;;;5034422;28;20407;-79
2023/09/14 13:05:26;;;;;;;7.00;4.10;;;;;;;;;;5052854;28;20411;-79
2023/09/14 13:07:59;;;;;;;6.65;3.72;;;;;;;;;;5035562;28;20176;-79
2023/09/14 13:10:29;;;;;;;6.15;3.45;;;;;;;;;;5034758;28;20240;-78
2023/09/14 13:12:57;;;;;;;5.88;3.80;;;;;;;;;;5034804;28;20510;-78
2023/09/14 13:15:27;;;;;;;8.87;4.00;;;;;;;;;;5033609;28;20469;-79
2023/09/14 13:17:55;;;;;;;6.20;3.85;;;;;;;;;;5032341;28;20427;-78
2023/09/14 13:20:22;;;;;;;6.03;3.40;;;;;;;;;;5033065;28;20436;-79
2023/09/14 13:22:48;;;;;;;6.22;3.50;;;;;;;;;;5032493;28;20479;-79
2023/09/14 13:25:14;;;;;;;7.22;3.53;;;;;;;;;;5017293;28;20431;-75
2023/09/14 13:27:41;;;;;;;6.13;3.87;;;;;;;;;;5034377;28;20408;-75
2023/09/14 13:30:09;;;;;;;8.32;3.90;;;;;;;;;;5052765;28;20474;-76
2023/09/14 13:32:35;;;;;;;7.40;3.97;;;;;;;;;;5033748;28;20518;-79
2023/09/14 13:35:01;;;;;;;6.47;3.97;;;;;;;;;;5035133;28;20447;-79
2023/09/14 13:37:27;;;;;;;4.87;3.47;;;;;;;;;;5035649;28;20413;-79
2023/09/14 13:39:53;;;;;;;6.43;3.90;;;;;;;;;;5034417;28;20432;-77
2023/09/14 13:42:19;;;;;;;9.30;4.07;;;;;;;;;;5052182;28;20442;-77
2023/09/14 13:44:46;;;;;;;6.43;3.80;;;;;;;;;;5017067;28;20454;-77
2023/09/14 13:47:12;;;;;;;6.75;3.92;;;;;;;;;;4998672;28;20415;-77
2023/09/14 13:49:38;;;;;;;6.18;3.67;;;;;;;;;;5037826;28;20461;-77
2023/09/14 13:52:05;;;;;;;6.47;4.03;;;;;;;;;;5035024;28;20516;-77
2023/09/14 13:54:31;;;;;;;6.68;3.78;;;;;;;;;;5015899;28;20429;-77
2023/09/14 13:56:57;;;;;;;6.70;4.13;;;;;;;;;;5015392;28;20235;-77
2023/09/14 13:59:25;;;;;;;6.63;3.35;;;;;;;;;;5011756;28;20208;-76
2023/09/14 14:01:51;;;;;;;7.60;3.92;;;;;;;;;;5002727;28;20509;-77
2023/09/14 14:04:17;;;;;;;6.22;3.50;;;;;;;;;;5002280;28;20192;-78
2023/09/14 14:06:45;;;;;;;6.53;3.70;;;;;;;;;;5023640;28;20424;-77
2023/09/14 14:09:11;;;;;;;7.05;3.70;;;;;;;;;;5013048;28;20433;-77
2023/09/14 14:11:37;;;;;;;4.72;3.20;;;;;;;;;;5036305;28;20180;-77
2023/09/14 14:14:03;;;;;;;5.72;3.80;;;;;;;;;;5011563;28;20429;-77
2023/09/14 14:16:29;;;;;;;4.63;3.50;;;;;;;;;;5035336;28;20188;-77
2023/09/14 14:18:55;;;;;;;6.15;3.80;;;;;;;;;;5037874;28;20211;-77
2023/09/14 14:21:21;;;;;;;5.82;3.70;;;;;;;;;;5037860;28;20180;-77
2023/09/14 14:23:47;;;;;;;5.78;3.72;;;;;;;;;;5034493;28;20191;-77
2023/09/14 14:26:13;;;;;;;5.93;3.33;;;;;;;;;;5033783;28;20180;-77
2023/09/14 14:28:39;;;;;;;6.72;3.47;;;;;;;;;;5028222;28;20222;-77
2023/09/14 14:31:06;;;;;;;6.72;3.85;;;;;;;;;;5038457;28;20207;-79
2023/09/14 14:33:32;;;;;;;6.38;3.70;;;;;;;;;;5012192;28;20180;-79